sensor_id;sensor_type;location;lat;lon;timestamp;temperature;humidity
3876;DHT22;1953;51.222;6.624;2023-08-24T00:00:59;21.70;1.00
3876;DHT22;1953;51.222;6.624;2023-08-24T00:05:42;21.60;1.00
3876;DHT22;1953;51.222;6.624;2023-08-24T00:10:25;21.50;1.00
3876;DHT22;1953;51.222;6.624;2023-08-24T00:16:58;21.40;1.00
3876;DHT22;1953;51.222;6.624;2023-08-24T00:21:40;21.40;1.00
3876;DHT22;1953;51.222;6.624;2023-08-24T00:26:23;21.40;1.00
3876;DHT22;1953;51.222;6.624;2023-08-24T00:31:06;21.40;1.00
3876;DHT22;1953;51.222;6.624;2023-08-24T00:35:50;21.50;1.00
3876;DHT22;1953;51.222;6.624;2023-08-24T00:40:32;21.60;1.00
3876;DHT22;1953;51.222;6.624;2023-08-24T00:45:15;21.50;1.00
3876;DHT22;1953;51.222;6.624;2023-08-24T00:49:59;21.60;1.00
3876;DHT22;1953;51.222;6.624;2023-08-24T00:54:43;21.60;1.00
3876;DHT22;1953;51.222;6.624;2023-08-24T00:59:26;21.50;1.00
3876;DHT22;1953;51.222;6.624;2023-08-24T01:04:09;21.50;1.00
3876;DHT22;1953;51.222;6.624;2023-08-24T01:08:52;21.50;1.00
3876;DHT22;1953;51.222;6.624;2023-08-24T01:13:41;21.50;1.00
3876;DHT22;1953;51.222;6.624;2023-08-24T01:18:26;21.40;1.00
3876;DHT22;1953;51.222;6.624;2023-08-24T01:23:20;21.30;1.00
3876;DHT22;1953;51.222;6.624;2023-08-24T01:28:08;21.20;1.00
3876;DHT22;1953;51.222;6.624;2023-08-24T01:32:51;21.10;1.00
3876;DHT22;1953;51.222;6.624;2023-08-24T01:37:35;21.00;1.00
3876;DHT22;1953;51.222;6.624;2023-08-24T01:42:20;21.00;1.00
3876;DHT22;1953;51.222;6.624;2023-08-24T01:47:07;21.10;1.00
3876;DHT22;1953;51.222;6.624;2023-08-24T01:51:52;21.10;1.00
3876;DHT22;1953;51.222;6.624;2023-08-24T01:56:35;21.10;1.00
3876;DHT22;1953;51.222;6.624;2023-08-24T02:01:18;21.00;1.00
3876;DHT22;1953;51.222;6.624;2023-08-24T02:06:02;21.00;1.00
3876;DHT22;1953;51.222;6.624;2023-08-24T02:10:46;20.90;1.00
3876;DHT22;1953;51.222;6.624;2023-08-24T02:15:28;20.80;1.00
3876;DHT22;1953;51.222;6.624;2023-08-24T02:20:11;20.80;1.00
3876;DHT22;1953;51.222;6.624;2023-08-24T02:24:55;20.80;1.00
3876;DHT22;1953;51.222;6.624;2023-08-24T02:29:38;20.80;1.00
3876;DHT22;1953;51.222;6.624;2023-08-24T02:33:50;20.80;1.00
3876;DHT22;1953;51.222;6.624;2023-08-24T02:38:33;20.80;1.00
3876;DHT22;1953;51.222;6.624;2023-08-24T02:43:17;20.80;1.00
3876;DHT22;1953;51.222;6.624;2023-08-24T02:47:59;20.80;1.00
3876;DHT22;1953;51.222;6.624;2023-08-24T02:52:42;20.80;1.00
3876;DHT22;1953;51.222;6.624;2023-08-24T02:57:24;20.80;1.00
3876;DHT22;1953;51.222;6.624;2023-08-24T03:02:08;20.80;1.00
3876;DHT22;1953;51.222;6.624;2023-08-24T03:06:51;20.70;1.00
3876;DHT22;1953;51.222;6.624;2023-08-24T03:11:34;20.70;1.00
3876;DHT22;1953;51.222;6.624;2023-08-24T03:16:16;20.70;1.00
3876;DHT22;1953;51.222;6.624;2023-08-24T03:21:00;20.70;1.00
3876;DHT22;1953;51.222;6.624;2023-08-24T03:25:43;20.80;1.00
3876;DHT22;1953;51.222;6.624;2023-08-24T03:30:26;20.80;1.00
3876;DHT22;1953;51.222;6.624;2023-08-24T03:35:09;20.80;1.00
3876;DHT22;1953;51.222;6.624;2023-08-24T03:39:52;20.70;1.00
3876;DHT22;1953;51.222;6.624;2023-08-24T03:44:35;20.80;1.00
3876;DHT22;1953;51.222;6.624;2023-08-24T03:49:17;20.70;1.00
3876;DHT22;1953;51.222;6.624;2023-08-24T03:54:00;20.70;1.00
3876;DHT22;1953;51.222;6.624;2023-08-24T03:58:45;20.80;1.00
3876;DHT22;1953;51.222;6.624;2023-08-24T04:03:28;20.90;1.00
3876;DHT22;1953;51.222;6.624;2023-08-24T04:08:10;21.00;1.00
3876;DHT22;1953;51.222;6.624;2023-08-24T04:12:53;20.90;1.00
3876;DHT22;1953;51.222;6.624;2023-08-24T04:17:37;20.80;1.00
3876;DHT22;1953;51.222;6.624;2023-08-24T04:22:19;20.80;1.00
3876;DHT22;1953;51.222;6.624;2023-08-24T04:27:02;20.80;1.00
3876;DHT22;1953;51.222;6.624;2023-08-24T04:31:45;20.80;1.00
3876;DHT22;1953;51.222;6.624;2023-08-24T04:36:28;20.80;1.00
3876;DHT22;1953;51.222;6.624;2023-08-24T04:41:11;20.70;1.00
3876;DHT22;1953;51.222;6.624;2023-08-24T04:45:54;20.70;1.00
3876;DHT22;1953;51.222;6.624;2023-08-24T04:50:37;20.70;1.00
3876;DHT22;1953;51.222;6.624;2023-08-24T04:55:22;20.60;1.00
3876;DHT22;1953;51.222;6.624;2023-08-24T05:00:06;20.60;1.00
3876;DHT22;1953;51.222;6.624;2023-08-24T05:04:49;20.50;1.00
3876;DHT22;1953;51.222;6.624;2023-08-24T05:09:31;20.60;1.00
3876;DHT22;1953;51.222;6.624;2023-08-24T05:14:15;20.60;1.00
3876;DHT22;1953;51.222;6.624;2023-08-24T05:18:57;20.60;1.00
3876;DHT22;1953;51.222;6.624;2023-08-24T05:23:40;20.60;1.00
3876;DHT22;1953;51.222;6.624;2023-08-24T05:28:23;20.50;1.00
3876;DHT22;1953;51.222;6.624;2023-08-24T05:33:06;20.60;1.00
3876;DHT22;1953;51.222;6.624;2023-08-24T05:37:49;20.60;1.00
3876;DHT22;1953;51.222;6.624;2023-08-24T05:42:32;20.50;1.00
3876;DHT22;1953;51.222;6.624;2023-08-24T05:47:14;20.60;1.00
3876;DHT22;1953;51.222;6.624;2023-08-24T05:51:58;20.60;1.00
3876;DHT22;1953;51.222;6.624;2023-08-24T05:56:41;20.60;1.00
3876;DHT22;1953;51.222;6.624;2023-08-24T06:01:23;20.80;1.00
3876;DHT22;1953;51.222;6.624;2023-08-24T06:06:06;20.90;1.00
3876;DHT22;1953;51.222;6.624;2023-08-24T06:10:51;21.00;1.00
3876;DHT22;1953;51.222;6.624;2023-08-24T06:15:34;21.00;1.00
3876;DHT22;1953;51.222;6.624;2023-08-24T06:20:17;21.10;1.00
3876;DHT22;1953;51.222;6.624;2023-08-24T06:24:59;21.10;1.00
3876;DHT22;1953;51.222;6.624;2023-08-24T06:29:43;21.20;1.00
3876;DHT22;1953;51.222;6.624;2023-08-24T06:34:26;21.20;1.00
3876;DHT22;1953;51.222;6.624;2023-08-24T06:39:08;21.30;1.00
3876;DHT22;1953;51.222;6.624;2023-08-24T06:43:52;21.40;1.00
3876;DHT22;1953;51.222;6.624;2023-08-24T06:48:38;21.40;1.00
3876;DHT22;1953;51.222;6.624;2023-08-24T06:53:20;21.50;1.00
3876;DHT22;1953;51.222;6.624;2023-08-24T06:58:03;21.60;1.00
3876;DHT22;1953;51.222;6.624;2023-08-24T07:02:46;21.70;1.00
3876;DHT22;1953;51.222;6.624;2023-08-24T07:07:30;21.80;1.00
3876;DHT22;1953;51.222;6.624;2023-08-24T07:12:13;21.90;1.00
3876;DHT22;1953;51.222;6.624;2023-08-24T07:16:55;22.10;1.00
3876;DHT22;1953;51.222;6.624;2023-08-24T07:21:38;22.20;1.00
3876;DHT22;1953;51.222;6.624;2023-08-24T07:26:22;22.40;1.00
3876;DHT22;1953;51.222;6.624;2023-08-24T07:31:07;22.60;1.00
3876;DHT22;1953;51.222;6.624;2023-08-24T07:35:51;22.80;1.00
3876;DHT22;1953;51.222;6.624;2023-08-24T07:40:34;22.90;1.00
3876;DHT22;1953;51.222;6.624;2023-08-24T07:45:18;23.10;1.00
3876;DHT22;1953;51.222;6.624;2023-08-24T07:50:00;23.20;1.00
3876;DHT22;1953;51.222;6.624;2023-08-24T07:54:43;23.40;1.00
3876;DHT22;1953;51.222;6.624;2023-08-24T07:59:26;23.50;1.00
3876;DHT22;1953;51.222;6.624;2023-08-24T08:04:10;23.60;1.00
3876;DHT22;1953;51.222;6.624;2023-08-24T08:08:53;23.80;1.00
3876;DHT22;1953;51.222;6.624;2023-08-24T08:13:35;23.90;1.00
3876;DHT22;1953;51.222;6.624;2023-08-24T08:18:18;24.20;1.00
3876;DHT22;1953;51.222;6.624;2023-08-24T08:23:02;24.40;1.00
3876;DHT22;1953;51.222;6.624;2023-08-24T08:27:45;24.50;1.00
3876;DHT22;1953;51.222;6.624;2023-08-24T08:32:27;24.70;1.00
3876;DHT22;1953;51.222;6.624;2023-08-24T08:37:10;25.00;1.00
3876;DHT22;1953;51.222;6.624;2023-08-24T08:41:55;25.20;1.00
3876;DHT22;1953;51.222;6.624;2023-08-24T08:46:38;25.40;1.00
3876;DHT22;1953;51.222;6.624;2023-08-24T08:51:21;25.50;1.00
3876;DHT22;1953;51.222;6.624;2023-08-24T08:56:04;25.60;1.00
3876;DHT22;1953;51.222;6.624;2023-08-24T09:00:49;25.80;1.00
3876;DHT22;1953;51.222;6.624;2023-08-24T09:05:01;26.00;1.00
3876;DHT22;1953;51.222;6.624;2023-08-24T09:09:45;26.10;1.00
3876;DHT22;1953;51.222;6.624;2023-08-24T09:14:27;26.30;1.00
3876;DHT22;1953;51.222;6.624;2023-08-24T09:19:12;26.40;1.00
3876;DHT22;1953;51.222;6.624;2023-08-24T09:23:55;26.60;1.00
3876;DHT22;1953;51.222;6.624;2023-08-24T09:28:38;26.90;1.00
3876;DHT22;1953;51.222;6.624;2023-08-24T09:33:24;27.00;1.00
3876;DHT22;1953;51.222;6.624;2023-08-24T09:38:18;27.10;1.00
3876;DHT22;1953;51.222;6.624;2023-08-24T09:43:01;27.30;1.00
3876;DHT22;1953;51.222;6.624;2023-08-24T09:47:45;27.40;1.00
3876;DHT22;1953;51.222;6.624;2023-08-24T09:52:32;27.60;1.00
3876;DHT22;1953;51.222;6.624;2023-08-24T09:57:16;27.80;1.00
3876;DHT22;1953;51.222;6.624;2023-08-24T10:02:00;28.10;1.00
3876;DHT22;1953;51.222;6.624;2023-08-24T10:06:48;28.30;1.00
3876;DHT22;1953;51.222;6.624;2023-08-24T10:11:33;28.40;1.00
3876;DHT22;1953;51.222;6.624;2023-08-24T10:16:20;28.30;1.00
3876;DHT22;1953;51.222;6.624;2023-08-24T10:21:03;28.40;1.00
3876;DHT22;1953;51.222;6.624;2023-08-24T10:25:46;28.50;1.00
3876;DHT22;1953;51.222;6.624;2023-08-24T10:30:29;28.70;1.00
3876;DHT22;1953;51.222;6.624;2023-08-24T10:35:13;28.90;1.00
3876;DHT22;1953;51.222;6.624;2023-08-24T10:39:56;29.10;1.00
3876;DHT22;1953;51.222;6.624;2023-08-24T10:44:43;29.30;1.00
3876;DHT22;1953;51.222;6.624;2023-08-24T10:49:29;29.40;1.00
3876;DHT22;1953;51.222;6.624;2023-08-24T10:54:15;29.60;1.00
3876;DHT22;1953;51.222;6.624;2023-08-24T10:59:10;29.50;1.00
3876;DHT22;1953;51.222;6.624;2023-08-24T11:03:55;29.70;1.00
3876;DHT22;1953;51.222;6.624;2023-08-24T11:08:47;29.70;1.00
3876;DHT22;1953;51.222;6.624;2023-08-24T11:13:31;29.80;1.00
3876;DHT22;1953;51.222;6.624;2023-08-24T11:18:22;29.80;1.00
3876;DHT22;1953;51.222;6.624;2023-08-24T11:23:06;29.70;1.00
3876;DHT22;1953;51.222;6.624;2023-08-24T11:27:49;29.70;1.00
3876;DHT22;1953;51.222;6.624;2023-08-24T11:32:33;29.50;1.00
3876;DHT22;1953;51.222;6.624;2023-08-24T11:37:18;29.50;1.00
3876;DHT22;1953;51.222;6.624;2023-08-24T11:42:03;29.40;1.00
3876;DHT22;1953;51.222;6.624;2023-08-24T11:46:45;29.40;1.00
3876;DHT22;1953;51.222;6.624;2023-08-24T11:51:30;29.60;1.00
3876;DHT22;1953;51.222;6.624;2023-08-24T11:56:14;29.50;1.00
3876;DHT22;1953;51.222;6.624;2023-08-24T12:00:58;29.50;1.00
3876;DHT22;1953;51.222;6.624;2023-08-24T12:05:40;29.40;1.00
3876;DHT22;1953;51.222;6.624;2023-08-24T12:10:24;29.40;1.00
3876;DHT22;1953;51.222;6.624;2023-08-24T12:18:07;28.90;1.00
3876;DHT22;1953;51.222;6.624;2023-08-24T12:22:50;28.40;1.00
3876;DHT22;1953;51.222;6.624;2023-08-24T12:27:33;28.00;1.00
3876;DHT22;1953;51.222;6.624;2023-08-24T12:32:17;27.80;1.00
3876;DHT22;1953;51.222;6.624;2023-08-24T12:37:02;27.50;1.00
3876;DHT22;1953;51.222;6.624;2023-08-24T12:41:45;27.50;1.00
3876;DHT22;1953;51.222;6.624;2023-08-24T12:46:28;27.50;1.00
3876;DHT22;1953;51.222;6.624;2023-08-24T12:51:11;27.60;1.00
3876;DHT22;1953;51.222;6.624;2023-08-24T12:55:55;27.60;1.00
3876;DHT22;1953;51.222;6.624;2023-08-24T13:00:37;27.50;1.00
3876;DHT22;1953;51.222;6.624;2023-08-24T13:05:20;27.50;1.00
3876;DHT22;1953;51.222;6.624;2023-08-24T13:10:03;27.40;1.00
3876;DHT22;1953;51.222;6.624;2023-08-24T13:14:47;27.20;1.00
3876;DHT22;1953;51.222;6.624;2023-08-24T13:19:29;27.30;1.00
3876;DHT22;1953;51.222;6.624;2023-08-24T13:24:12;27.30;1.00
3876;DHT22;1953;51.222;6.624;2023-08-24T13:28:54;27.10;1.00
3876;DHT22;1953;51.222;6.624;2023-08-24T13:33:39;27.20;1.00
3876;DHT22;1953;51.222;6.624;2023-08-24T13:38:22;27.20;1.00
3876;DHT22;1953;51.222;6.624;2023-08-24T13:43:04;27.00;1.00
3876;DHT22;1953;51.222;6.624;2023-08-24T13:47:47;26.90;1.00
3876;DHT22;1953;51.222;6.624;2023-08-24T13:52:31;26.90;1.00
3876;DHT22;1953;51.222;6.624;2023-08-24T13:57:13;26.80;1.00
3876;DHT22;1953;51.222;6.624;2023-08-24T14:01:56;26.90;1.00
3876;DHT22;1953;51.222;6.624;2023-08-24T14:06:38;26.90;1.00
3876;DHT22;1953;51.222;6.624;2023-08-24T14:11:22;26.90;1.00
3876;DHT22;1953;51.222;6.624;2023-08-24T14:16:05;26.80;1.00
3876;DHT22;1953;51.222;6.624;2023-08-24T14:20:48;26.60;1.00
3876;DHT22;1953;51.222;6.624;2023-08-24T14:25:31;26.70;1.00
3876;DHT22;1953;51.222;6.624;2023-08-24T14:30:15;26.60;1.00
3876;DHT22;1953;51.222;6.624;2023-08-24T14:34:57;26.40;1.00
3876;DHT22;1953;51.222;6.624;2023-08-24T14:39:40;26.30;1.00
3876;DHT22;1953;51.222;6.624;2023-08-24T14:44:22;26.20;1.00
3876;DHT22;1953;51.222;6.624;2023-08-24T14:49:06;26.00;1.00
3876;DHT22;1953;51.222;6.624;2023-08-24T14:53:49;25.80;1.00
3876;DHT22;1953;51.222;6.624;2023-08-24T14:58:32;25.60;1.00
3876;DHT22;1953;51.222;6.624;2023-08-24T15:03:18;25.50;1.00
3876;DHT22;1953;51.222;6.624;2023-08-24T15:08:04;25.20;1.00
3876;DHT22;1953;51.222;6.624;2023-08-24T15:12:47;25.20;1.00
3876;DHT22;1953;51.222;6.624;2023-08-24T15:17:31;25.00;1.00
3876;DHT22;1953;51.222;6.624;2023-08-24T15:22:13;24.90;1.00
3876;DHT22;1953;51.222;6.624;2023-08-24T15:26:57;24.90;1.00
3876;DHT22;1953;51.222;6.624;2023-08-24T15:31:40;24.70;1.00
3876;DHT22;1953;51.222;6.624;2023-08-24T15:36:23;24.30;1.00
3876;DHT22;1953;51.222;6.624;2023-08-24T15:41:05;24.20;1.00
3876;DHT22;1953;51.222;6.624;2023-08-24T15:45:50;24.10;1.00
3876;DHT22;1953;51.222;6.624;2023-08-24T15:50:33;24.10;1.00
3876;DHT22;1953;51.222;6.624;2023-08-24T15:55:16;25.10;1.00
3876;DHT22;1953;51.222;6.624;2023-08-24T15:59:58;23.90;1.00
3876;DHT22;1953;51.222;6.624;2023-08-24T16:04:43;23.70;1.00
3876;DHT22;1953;51.222;6.624;2023-08-24T16:09:26;23.60;1.00
3876;DHT22;1953;51.222;6.624;2023-08-24T16:14:08;23.50;1.00
3876;DHT22;1953;51.222;6.624;2023-08-24T16:18:52;23.60;1.00
3876;DHT22;1953;51.222;6.624;2023-08-24T16:23:36;23.70;1.00
3876;DHT22;1953;51.222;6.624;2023-08-24T16:28:19;23.80;1.00
3876;DHT22;1953;51.222;6.624;2023-08-24T16:33:01;24.00;1.00
3876;DHT22;1953;51.222;6.624;2023-08-24T16:37:44;24.10;1.00
3876;DHT22;1953;51.222;6.624;2023-08-24T16:42:28;24.30;1.00
3876;DHT22;1953;51.222;6.624;2023-08-24T16:47:10;24.40;1.00
3876;DHT22;1953;51.222;6.624;2023-08-24T16:51:53;24.60;1.00
3876;DHT22;1953;51.222;6.624;2023-08-24T16:56:35;24.70;1.00
3876;DHT22;1953;51.222;6.624;2023-08-24T17:01:19;24.70;1.00
3876;DHT22;1953;51.222;6.624;2023-08-24T17:06:02;24.70;1.00
3876;DHT22;1953;51.222;6.624;2023-08-24T17:10:44;24.80;1.00
3876;DHT22;1953;51.222;6.624;2023-08-24T17:15:27;24.70;1.00
3876;DHT22;1953;51.222;6.624;2023-08-24T17:20:12;24.70;1.00
3876;DHT22;1953;51.222;6.624;2023-08-24T17:24:54;24.70;1.00
3876;DHT22;1953;51.222;6.624;2023-08-24T17:29:37;24.60;1.00
3876;DHT22;1953;51.222;6.624;2023-08-24T17:34:19;24.50;1.00
3876;DHT22;1953;51.222;6.624;2023-08-24T17:39:03;24.40;1.00
3876;DHT22;1953;51.222;6.624;2023-08-24T17:43:47;24.30;1.00
3876;DHT22;1953;51.222;6.624;2023-08-24T17:48:30;24.30;1.00
3876;DHT22;1953;51.222;6.624;2023-08-24T17:53:12;24.20;1.00
3876;DHT22;1953;51.222;6.624;2023-08-24T17:57:56;24.10;1.00
3876;DHT22;1953;51.222;6.624;2023-08-24T18:02:39;24.10;1.00
3876;DHT22;1953;51.222;6.624;2023-08-24T18:07:22;24.00;1.00
3876;DHT22;1953;51.222;6.624;2023-08-24T18:12:05;23.90;1.00
3876;DHT22;1953;51.222;6.624;2023-08-24T18:16:50;24.00;1.00
3876;DHT22;1953;51.222;6.624;2023-08-24T18:21:32;24.00;1.00
3876;DHT22;1953;51.222;6.624;2023-08-24T18:26:15;23.90;1.00
3876;DHT22;1953;51.222;6.624;2023-08-24T18:30:58;23.90;1.00
3876;DHT22;1953;51.222;6.624;2023-08-24T18:35:42;23.90;1.00
3876;DHT22;1953;51.222;6.624;2023-08-24T18:40:24;24.00;1.00
3876;DHT22;1953;51.222;6.624;2023-08-24T18:45:07;23.80;1.00
3876;DHT22;1953;51.222;6.624;2023-08-24T18:49:50;23.70;1.00
3876;DHT22;1953;51.222;6.624;2023-08-24T18:54:34;23.70;1.00
3876;DHT22;1953;51.222;6.624;2023-08-24T18:59:17;23.70;1.00
3876;DHT22;1953;51.222;6.624;2023-08-24T19:04:01;23.50;1.00
3876;DHT22;1953;51.222;6.624;2023-08-24T19:08:44;23.50;1.00
3876;DHT22;1953;51.222;6.624;2023-08-24T19:13:28;23.40;1.00
3876;DHT22;1953;51.222;6.624;2023-08-24T19:18:10;23.30;1.00
3876;DHT22;1953;51.222;6.624;2023-08-24T19:22:53;23.40;1.00
3876;DHT22;1953;51.222;6.624;2023-08-24T19:27:36;23.40;1.00
3876;DHT22;1953;51.222;6.624;2023-08-24T19:32:19;23.30;1.00
3876;DHT22;1953;51.222;6.624;2023-08-24T19:37:02;23.30;1.00
3876;DHT22;1953;51.222;6.624;2023-08-24T19:41:45;23.30;1.00
3876;DHT22;1953;51.222;6.624;2023-08-24T19:46:27;23.20;1.00
3876;DHT22;1953;51.222;6.624;2023-08-24T19:51:11;23.10;1.00
3876;DHT22;1953;51.222;6.624;2023-08-24T19:55:54;23.10;1.00
3876;DHT22;1953;51.222;6.624;2023-08-24T20:00:36;23.00;1.00
3876;DHT22;1953;51.222;6.624;2023-08-24T20:05:19;22.90;1.00
3876;DHT22;1953;51.222;6.624;2023-08-24T20:10:03;22.90;1.00
3876;DHT22;1953;51.222;6.624;2023-08-24T20:14:46;22.90;1.00
3876;DHT22;1953;51.222;6.624;2023-08-24T20:19:28;22.80;1.00
3876;DHT22;1953;51.222;6.624;2023-08-24T20:24:11;22.80;1.00
3876;DHT22;1953;51.222;6.624;2023-08-24T20:28:55;22.80;1.00
3876;DHT22;1953;51.222;6.624;2023-08-24T20:33:38;22.70;1.00
3876;DHT22;1953;51.222;6.624;2023-08-24T20:38:20;22.60;1.00
3876;DHT22;1953;51.222;6.624;2023-08-24T20:43:03;22.60;1.00
3876;DHT22;1953;51.222;6.624;2023-08-24T20:47:47;22.60;1.00
3876;DHT22;1953;51.222;6.624;2023-08-24T20:52:29;22.50;1.00
3876;DHT22;1953;51.222;6.624;2023-08-24T20:57:12;22.40;1.00
3876;DHT22;1953;51.222;6.624;2023-08-24T21:01:54;22.40;1.00
3876;DHT22;1953;51.222;6.624;2023-08-24T21:06:38;22.30;1.00
3876;DHT22;1953;51.222;6.624;2023-08-24T21:11:21;22.20;1.00
3876;DHT22;1953;51.222;6.624;2023-08-24T21:16:03;22.10;1.00
3876;DHT22;1953;51.222;6.624;2023-08-24T21:20:46;22.10;1.00
3876;DHT22;1953;51.222;6.624;2023-08-24T21:25:30;22.00;1.00
3876;DHT22;1953;51.222;6.624;2023-08-24T21:30:12;21.90;1.00
3876;DHT22;1953;51.222;6.624;2023-08-24T21:34:55;21.90;1.00
3876;DHT22;1953;51.222;6.624;2023-08-24T21:39:38;21.80;1.00
3876;DHT22;1953;51.222;6.624;2023-08-24T21:44:22;21.80;1.00
3876;DHT22;1953;51.222;6.624;2023-08-24T21:49:05;21.90;1.00
3876;DHT22;1953;51.222;6.624;2023-08-24T21:53:48;22.00;1.00
3876;DHT22;1953;51.222;6.624;2023-08-24T21:58:30;22.00;1.00
3876;DHT22;1953;51.222;6.624;2023-08-24T22:03:17;22.00;1.00
3876;DHT22;1953;51.222;6.624;2023-08-24T22:08:00;22.00;1.00
3876;DHT22;1953;51.222;6.624;2023-08-24T22:12:44;22.00;1.00
3876;DHT22;1953;51.222;6.624;2023-08-24T22:17:26;22.00;1.00
3876;DHT22;1953;51.222;6.624;2023-08-24T22:22:10;22.00;1.00
3876;DHT22;1953;51.222;6.624;2023-08-24T22:26:53;21.90;1.00
3876;DHT22;1953;51.222;6.624;2023-08-24T22:31:36;21.80;1.00
3876;DHT22;1953;51.222;6.624;2023-08-24T22:36:20;21.80;1.00
3876;DHT22;1953;51.222;6.624;2023-08-24T22:41:03;21.80;1.00
3876;DHT22;1953;51.222;6.624;2023-08-24T22:45:46;21.80;1.00
3876;DHT22;1953;51.222;6.624;2023-08-24T22:50:29;21.70;1.00
3876;DHT22;1953;51.222;6.624;2023-08-24T22:55:11;21.80;1.00
3876;DHT22;1953;51.222;6.624;2023-08-24T22:59:55;21.80;1.00
3876;DHT22;1953;51.222;6.624;2023-08-24T23:04:37;21.70;1.00
3876;DHT22;1953;51.222;6.624;2023-08-24T23:09:20;21.70;1.00
3876;DHT22;1953;51.222;6.624;2023-08-24T23:14:03;21.70;1.00
3876;DHT22;1953;51.222;6.624;2023-08-24T23:18:47;21.70;1.00
3876;DHT22;1953;51.222;6.624;2023-08-24T23:23:29;21.60;1.00
3876;DHT22;1953;51.222;6.624;2023-08-24T23:28:12;21.60;1.00
3876;DHT22;1953;51.222;6.624;2023-08-24T23:32:55;21.50;1.00
3876;DHT22;1953;51.222;6.624;2023-08-24T23:37:39;21.50;1.00
3876;DHT22;1953;51.222;6.624;2023-08-24T23:42:22;21.40;1.00
3876;DHT22;1953;51.222;6.624;2023-08-24T23:47:05;21.40;1.00
3876;DHT22;1953;51.222;6.624;2023-08-24T23:51:47;21.30;1.00
3876;DHT22;1953;51.222;6.624;2023-08-24T23:56:31;21.30;1.00
